MAPA DE AEROPUERTO

INFORMACIÓN METAR y TAF

METAR FOR LEPA
ADDS - METARS form results

(1010 UTC 05 August 2021)
Data provider http://aviationweather.gov/metar/data/
 
METAR text: LEPA 051000Z 24009KT 210V280 9999 SCT024 29/23 Q1015 NOSIG
Conditions at: LEPA (PALMA DE MALLORC, ES) observed 1000 UTC 05 August 2021
Temperature: 29.0°C (84°F)
Dewpoint: 23.0°C (73°F) [RH = 70%]
Pressure (altimeter): 29.97 inches Hg (1015.0 mb)
Winds: from the WSW (240 degrees) at 10 MPH (9 knots; 4.6 m/s)
Visibility: 6 or more miles (10+ km)
Ceiling: at least 12,000 feet AGL
Clouds: scattered clouds at 2400 feet AGL
Weather: no significant weather observed at this time

METAR text: LEPA 050930Z 24009KT 9999 SCT024 29/23 Q1015 NOSIG
Conditions at: LEPA (PALMA DE MALLORC, ES) observed 0930 UTC 05 August 2021
Temperature: 29.0°C (84°F)
Dewpoint: 23.0°C (73°F) [RH = 70%]
Pressure (altimeter): 29.97 inches Hg (1015.0 mb)
Winds: from the WSW (240 degrees) at 10 MPH (9 knots; 4.6 m/s)
Visibility: 6 or more miles (10+ km)
Ceiling: at least 12,000 feet AGL
Clouds: scattered clouds at 2400 feet AGL
Weather: no significant weather observed at this time

Forecast for: LEPA (PALMA DE MALLORC, ES)
Text: TAF LEPA 050500Z 0506/0606 05005KT 9999 FEW020 TX30/0512Z TN20/0506Z
Forecast period: 0600 to 0900 UTC 05 August 2021
Forecast type: FROM: standard forecast or significant change
Winds: from the NE (50 degrees) at 6 MPH (5 knots; 2.6 m/s)
Visibility: 6 or more miles (10+ km)
Ceiling: at least 12,000 feet AGL
Clouds: few clouds at 2000 feet AGL
Weather: no significant weather forecast for this period
Text: BECMG 0509/0511 22010KT
Forecast period: 0900 to 1600 UTC 05 August 2021
Forecast type: BECOMING: Conditions expected to become as follows by 1100 UTC 05 August 2021
Winds: from the SW (220 degrees) at 12 MPH (10 knots; 5.1 m/s)
Visibility: 6 or more miles (10+ km)
Ceiling: at least 12,000 feet AGL
Clouds: few clouds at 2000 feet AGL
Weather: no significant weather forecast for this period
Text: BECMG 0516/0518 25003KT
Forecast period: 1600 UTC 05 August 2021 to 0600 UTC 06 August 2021
Forecast type: BECOMING: Conditions expected to become as follows by 1800 UTC 05 August 2021
Winds: from the WSW (250 degrees) at 3 MPH (3 knots; 1.5 m/s)
Visibility: 6 or more miles (10+ km)
Ceiling: at least 12,000 feet AGL
Clouds: few clouds at 2000 feet AGL
Weather: no significant weather forecast for this period